Weather at Prairie View Farm Airport

Public forecast

Using degrees Fahrenheit for public forecast. Weather courtesy of forecast.io.

Closest aviation weather report (METAR) to Prairie View Farm Airport

Closest report is Burlington Municipal Airport, 9.8 nm (18.2 km) NNE. Retrieved 2021/06/13 18:15 UTC (0 seconds ago):

KBUU 131815Z AUTO 32008KT 280V350 10SM 30/10 A3000 RMK AO2 T02960098 PWINO

Closest aviation forecast (TAF) to Prairie View Farm Airport

Closest forecast is Kenosha Regional Airport, 22.2 nm (41.2 km) E. Retrieved 2021/06/13 18:24 UTC (0 seconds ago):

TAF KENW 131723Z 1318/1418 08010KT P6SM FEW050 FM132300 14007KT P6SM FEW100 FM140500 23006KT P6SM SCT120 BKN250 FM140900 35010KT P6SM SCT050 BKN150 TEMPO 1409/1411 05015G25KT FM141500 35010G20KT P6SM SCT200